Weather History for Harlan, IA

Change the Weather History Date:

Friday, January 24, 2014

  Actual Average Record
Temperature  
Mean Temperature 26 °F -  
Max Temperature 48 °F 32 °F 66 °F (1981)
Min Temperature 3 °F 12 °F -14 °F (1961)
Degree Days  
Heating Degree Days 40    
Moisture  
Dew Point 12 °F    
Average Humidity 50    
Maximum Humidity 70    
Minimum Humidity 34    
Precipitation  
Precipitation 0.00 in - - ()
Sea Level Pressure  
Sea Level Pressure 29.96 in    
Wind  
Wind Speed 16 mph (SW)    
Max Wind Speed 31 mph    
Max Gust Speed 36 mph    
Visibility 10 miles    
Events      
Averages and records for this station are not official NWS values.
T = Trace of Precipitation, MM = Missing Value Source: NWS Daily Summary

Daily Weather History Graph

Daily Weather History Graph

Search for Another Location

Airport:

Trip Planner

Search our weather history database for the weather conditions in past years. The results will help you decide how hot, cold, wet, or windy it might be!

Date:

Astronomy

Jan. 24, 2014 Rise Set
Actual Time 7:40 AM CST 5:27 PM CST
Civil Twilight 7:10 AM CST 5:57 PM CST
Nautical Twilight 6:36 AM CST 6:30 PM CST
Astronomical Twilight 6:03 AM CST 7:03 PM CST
Moon 1:07 AM CST (1/24) 11:47 AM CST (1/24)
Length of Visible Light 10h 46m
Length of Day
9h 46m
Last Quarter, 44% of the Moon is Illuminated
Jan 24
Last Quarter
Jan 30
New
Feb 6
First Quarter
Feb 14
Full
Feb 22
Last Quarter

Hourly Weather History & Observations

Time (CST) Temp. Windchill Dew Point Humidity Pressure Visibility Wind Dir Wind Speed Gust Speed Precip Events Conditions
12:15 AM 3.2 °F -13.1 °F -7.6 °F 61% 30.45 in 10.0 mi South 11.5 mph - N/A   Clear
12:35 AM 3.2 °F -11.3 °F -7.6 °F 61% 30.44 in 10.0 mi SSW 9.2 mph - N/A   Clear
12:55 AM 5.0 °F -11.6 °F -7.6 °F 56% 30.40 in 10.0 mi South 12.7 mph - N/A   Clear
1:15 AM 5.0 °F -12.3 °F -7.6 °F 56% 30.40 in 10.0 mi South 13.8 mph - N/A   Clear
1:35 AM 5.0 °F -9.1 °F -7.6 °F 56% 30.39 in 10.0 mi SSW 9.2 mph - N/A   Clear
1:55 AM 6.8 °F -10.0 °F -7.6 °F 52% 30.35 in 10.0 mi South 13.8 mph - N/A   Clear
2:15 AM 8.6 °F -8.3 °F -5.8 °F 52% 30.34 in 10.0 mi South 15.0 mph - N/A   Clear
2:35 AM 6.8 °F -10.7 °F -5.8 °F 56% 30.33 in 10.0 mi South 15.0 mph - N/A   Clear
2:55 AM 10.4 °F -6.6 °F -5.8 °F 48% 30.30 in 10.0 mi SSW 16.1 mph - N/A   Clear
3:15 AM 10.4 °F -7.7 °F -5.8 °F 48% 30.29 in 10.0 mi SSW 18.4 mph - N/A   Clear
3:35 AM 12.2 °F -5.3 °F -5.8 °F 45% 30.27 in 10.0 mi SSW 18.4 mph - N/A   Clear
3:55 AM 12.2 °F -4.8 °F -5.8 °F 45% 30.25 in 10.0 mi SSW 17.3 mph 24.2 mph N/A   Clear
4:15 AM 12.2 °F -4.3 °F -5.8 °F 45% 30.22 in 10.0 mi SSW 16.1 mph 23.0 mph N/A   Clear
4:35 AM 12.2 °F -4.3 °F -4.0 °F 48% 30.20 in 10.0 mi SSW 16.1 mph - N/A   Clear
4:55 AM 12.2 °F -3.1 °F -4.0 °F 48% 30.20 in 10.0 mi SSW 13.8 mph 20.7 mph N/A   Clear
5:15 AM 12.2 °F -3.7 °F -4.0 °F 48% 30.18 in 10.0 mi SSW 15.0 mph - N/A   Clear
5:35 AM 12.2 °F -4.3 °F -2.2 °F 53% 30.16 in 10.0 mi SSW 16.1 mph - N/A   Clear
5:55 AM 14.0 °F -0.2 °F -2.2 °F 49% 30.15 in 10.0 mi SSW 12.7 mph - N/A   Clear
6:15 AM 14.0 °F -3.0 °F -0.4 °F 53% 30.11 in 10.0 mi SSW 18.4 mph - N/A   Clear
6:35 AM 14.0 °F -4.7 °F -0.4 °F 53% 30.09 in 10.0 mi SSW 23.0 mph 32.2 mph N/A   Clear
6:55 AM 14.0 °F -3.0 °F 1.4 °F 57% 30.08 in 10.0 mi SSW 18.4 mph 26.5 mph N/A   Clear
7:15 AM 15.8 °F -0.2 °F 1.4 °F 53% 30.08 in 10.0 mi SW 17.3 mph 26.5 mph N/A   Clear
7:35 AM 15.8 °F -0.6 °F 3.2 °F 58% 30.07 in 10.0 mi SSW 18.4 mph 29.9 mph N/A   Clear
7:55 AM 15.8 °F 0.9 °F 3.2 °F 58% 30.07 in 10.0 mi SW 15.0 mph 21.9 mph N/A   Clear
8:15 AM 17.6 °F 0.5 °F 5.0 °F 58% 30.05 in 10.0 mi SW 21.9 mph 28.8 mph N/A   Mostly Cloudy
8:35 AM 17.6 °F 1.3 °F 5.0 °F 58% 30.04 in 10.0 mi SW 19.6 mph 27.6 mph N/A   Mostly Cloudy
8:55 AM 19.4 °F 4.1 °F 5.0 °F 54% 30.04 in 10.0 mi SW 18.4 mph 27.6 mph N/A   Mostly Cloudy
9:15 AM 19.4 °F 3.6 °F 5.0 °F 54% 30.02 in 10.0 mi SW 19.6 mph 25.3 mph N/A   Mostly Cloudy
9:35 AM 21.2 °F 4.9 °F 6.8 °F 54% 30.02 in 10.0 mi SW 23.0 mph 29.9 mph N/A   Scattered Clouds
9:55 AM 23.0 °F 8.7 °F 6.8 °F 50% 30.03 in 10.0 mi WSW 18.4 mph 25.3 mph N/A   Scattered Clouds
10:15 AM 24.8 °F 11.5 °F 6.8 °F 46% 30.01 in 10.0 mi SW 17.3 mph 27.6 mph N/A   Partly Cloudy
10:35 AM 24.8 °F 10.3 °F 6.8 °F 46% 30.00 in 10.0 mi SW 20.7 mph 26.5 mph N/A   Clear
10:55 AM 28.4 °F 15.4 °F 8.6 °F 43% 29.99 in 10.0 mi SW 19.6 mph 26.5 mph N/A   Clear
11:15 AM 28.4 °F 15.8 °F 8.6 °F 43% 29.97 in 10.0 mi SW 18.4 mph 24.2 mph N/A   Clear
11:35 AM 30.2 °F 18.5 °F 8.6 °F 40% 29.97 in 10.0 mi WSW 17.3 mph 25.3 mph N/A   Mostly Cloudy
11:55 AM 32.0 °F 21.2 °F 8.6 °F 38% 29.94 in 10.0 mi WSW 16.1 mph - N/A   Overcast
12:15 PM 32.0 °F 21.2 °F 8.6 °F 38% 29.93 in 10.0 mi WSW 16.1 mph 23.0 mph N/A   Overcast
12:35 PM 33.8 °F 23.2 °F 10.4 °F 38% 29.91 in 10.0 mi WSW 17.3 mph - N/A   Overcast
12:55 PM 33.8 °F 22.8 °F 10.4 °F 38% 29.89 in 10.0 mi WSW 18.4 mph 24.2 mph N/A   Overcast
1:15 PM 35.6 °F 26.2 °F 12.2 °F 38% 29.87 in 10.0 mi WSW 15.0 mph 21.9 mph N/A   Mostly Cloudy
1:35 PM 37.4 °F 28.5 °F 12.2 °F 36% 29.86 in 10.0 mi WSW 15.0 mph 25.3 mph N/A   Overcast
1:55 PM 37.4 °F 27.8 °F 14.0 °F 38% 29.85 in 10.0 mi WSW 17.3 mph 24.2 mph N/A   Scattered Clouds
2:15 PM 37.4 °F 28.9 °F 14.0 °F 38% 29.83 in 10.0 mi SW 13.8 mph 24.2 mph N/A   Clear
2:35 PM 39.2 °F 29.6 °F 14.0 °F 36% 29.82 in 10.0 mi SW 19.6 mph - N/A   Clear
2:55 PM 39.2 °F 30.8 °F 14.0 °F 36% 29.80 in 10.0 mi SW 15.0 mph 23.0 mph N/A   Clear
3:15 PM 41.0 °F 32.8 °F 15.8 °F 36% 29.79 in 10.0 mi SW 16.1 mph - N/A   Partly Cloudy
3:35 PM 41.0 °F 32.8 °F 15.8 °F 36% 29.78 in 10.0 mi SW 16.1 mph - N/A   Clear
3:55 PM 42.8 °F 35.1 °F 15.8 °F 34% 29.79 in 10.0 mi WSW 16.1 mph - N/A   Clear
4:15 PM 42.8 °F 36.6 °F 17.6 °F 36% 29.78 in 10.0 mi SW 11.5 mph - N/A   Scattered Clouds
4:35 PM 42.8 °F 36.6 °F 17.6 °F 36% 29.76 in 10.0 mi SW 11.5 mph - N/A   Overcast
4:55 PM 42.8 °F 36.6 °F 19.4 °F 39% 29.75 in 10.0 mi SW 11.5 mph - N/A   Overcast
5:15 PM 41.0 °F 35.2 °F 19.4 °F 42% 29.74 in 10.0 mi SW 9.2 mph - N/A   Overcast
5:35 PM 41.0 °F 34.7 °F 21.2 °F 45% 29.73 in 10.0 mi SW 10.4 mph - N/A   Overcast
5:55 PM 44.6 °F 38.8 °F 24.8 °F 46% 29.73 in 10.0 mi WSW 11.5 mph - N/A   Overcast
6:15 PM 44.6 °F 39.2 °F 24.8 °F 46% 29.73 in 10.0 mi WSW 10.4 mph - N/A   Overcast
6:35 PM 42.8 °F 37.5 °F 24.8 °F 49% 29.72 in 10.0 mi SW 9.2 mph - N/A   Overcast
6:55 PM 44.6 °F 39.7 °F 26.6 °F 49% 29.71 in 10.0 mi West 9.2 mph 18.4 mph N/A   Overcast
7:15 PM 44.6 °F 40.7 °F 28.4 °F 53% 29.70 in 10.0 mi WSW 6.9 mph - N/A   Overcast
7:35 PM 44.6 °F 37.2 °F 30.2 °F 57% 29.69 in 10.0 mi West 17.3 mph - N/A   Overcast
7:55 PM 48.2 °F - 33.8 °F 58% 29.68 in 10.0 mi West 19.6 mph 31.1 mph N/A   Overcast
8:15 PM 48.2 °F - 33.8 °F 58% 29.67 in 10.0 mi West 20.7 mph - N/A   Overcast
8:35 PM 48.2 °F - 33.8 °F 58% 29.68 in 10.0 mi WNW 17.3 mph 25.3 mph N/A   Overcast
8:55 PM 48.2 °F - 35.6 °F 62% 29.67 in 10.0 mi WNW 24.2 mph 33.4 mph N/A   Overcast
9:15 PM 48.2 °F - 33.8 °F 58% 29.68 in 10.0 mi NW 18.4 mph 26.5 mph N/A   Overcast
9:35 PM 48.2 °F - 33.8 °F 58% 29.68 in 10.0 mi NW 23.0 mph 34.5 mph N/A   Overcast
9:55 PM 48.2 °F - 33.8 °F 58% 29.68 in 10.0 mi NW 26.5 mph - N/A   Overcast
10:15 PM 46.4 °F 38.3 °F 33.8 °F 62% 29.69 in 10.0 mi NW 23.0 mph 34.5 mph N/A   Overcast
10:35 PM 46.4 °F 38.5 °F 33.8 °F 62% 29.71 in 10.0 mi NNW 21.9 mph 32.2 mph N/A   Overcast
10:55 PM 44.6 °F 35.7 °F 33.8 °F 66% 29.72 in 10.0 mi NNW 24.2 mph - N/A   Overcast
11:15 PM 42.8 °F 33.1 °F 33.8 °F 70% 29.73 in 10.0 mi NW 25.3 mph - N/A   Overcast
11:35 PM 42.8 °F 32.5 °F 32.0 °F 66% 29.75 in 10.0 mi NW 28.8 mph 35.7 mph N/A   Overcast
11:55 PM 41.0 °F 29.7 °F 32.0 °F 70% 29.75 in 10.0 mi NW 31.1 mph - N/A   Overcast